Time;durP1;ratioP1;P1;durP2;ratioP2;P2;SDS_P1;SDS_P2;PMS_P1;PMS_P2;Temp;Humidity;BMP_temperature;BMP_pressure;BME280_temperature;BME280_humidity;BME280_pressure;Samples;Min_cycle;Max_cycle;Signal;HPM_P1;HPM_P2
2023/04/15 00:02:00;;;;;;;48.13;7.70;;;;;;;;;;5062036;28;20461;-38
2023/04/15 00:04:27;;;;;;;38.25;7.68;;;;;;;;;;5057840;28;20395;-41
2023/04/15 00:06:54;;;;;;;32.60;7.93;;;;;;;;;;5060079;28;20024;-43
2023/04/15 00:09:21;;;;;;;40.30;7.97;;;;;;;;;;5059762;28;20060;-39
2023/04/15 00:11:50;;;;;;;36.70;7.25;;;;;;;;;;5057397;28;20032;-39
2023/04/15 00:14:17;;;;;;;41.45;8.43;;;;;;;;;;5053664;28;20032;-38
2023/04/15 00:16:44;;;;;;;43.05;8.07;;;;;;;;;;5054634;28;20025;-42
2023/04/15 00:19:12;;;;;;;42.72;8.63;;;;;;;;;;5057233;28;20043;-38
2023/04/15 00:21:38;;;;;;;41.60;8.73;;;;;;;;;;5052335;28;20521;-41
2023/04/15 00:24:06;;;;;;;44.13;8.80;;;;;;;;;;5070510;28;20049;-41
2023/04/15 00:26:34;;;;;;;46.97;9.85;;;;;;;;;;5070997;28;20471;-37
2023/04/15 00:29:01;;;;;;;48.38;9.88;;;;;;;;;;5063391;28;20021;-37
2023/04/15 00:31:28;;;;;;;45.38;11.32;;;;;;;;;;5058483;28;20499;-37
2023/04/15 00:33:55;;;;;;;46.95;10.95;;;;;;;;;;5061229;28;20028;-38
2023/04/15 00:36:23;;;;;;;57.50;15.13;;;;;;;;;;5071516;28;20020;-40
2023/04/15 00:38:50;;;;;;;55.83;15.40;;;;;;;;;;5071415;28;20024;-40
2023/04/15 00:41:18;;;;;;;66.13;15.98;;;;;;;;;;5071547;28;20033;-40
2023/04/15 00:43:45;;;;;;;64.55;16.77;;;;;;;;;;5071375;28;20371;-41
2023/04/15 00:46:14;;;;;;;57.15;17.10;;;;;;;;;;5071106;28;20032;-39
2023/04/15 00:48:41;;;;;;;69.00;18.85;;;;;;;;;;5068450;28;20105;-40
2023/04/15 00:51:08;;;;;;;64.47;21.30;;;;;;;;;;5069950;28;20028;-38
2023/04/15 00:53:35;;;;;;;81.43;24.95;;;;;;;;;;5070608;28;20093;-41
2023/04/15 00:56:02;;;;;;;78.30;26.05;;;;;;;;;;5070750;28;20066;-40
2023/04/15 00:58:29;;;;;;;75.00;28.88;;;;;;;;;;5070348;28;20021;-37
2023/04/15 01:00:57;;;;;;;81.03;31.40;;;;;;;;;;5070878;28;20040;-40
2023/04/15 01:03:24;;;;;;;86.88;33.33;;;;;;;;;;5063649;28;20040;-38
2023/04/15 01:05:57;;;;;;;82.95;33.45;;;;;;;;;;5070702;28;20092;-40
2023/04/15 01:08:23;;;;;;;;;;;;;;;;;;5071115;28;20450;-40
2023/04/15 01:10:50;;;;;;;80.20;33.10;;;;;;;;;;5052543;28;19991;-40
2023/04/15 01:13:17;;;;;;;78.40;31.08;;;;;;;;;;5070473;28;20079;-40
2023/04/15 01:15:44;;;;;;;75.70;29.45;;;;;;;;;;5052968;28;20495;-39
2023/04/15 01:18:12;;;;;;;64.10;28.02;;;;;;;;;;5070541;28;20389;-41
2023/04/15 01:20:39;;;;;;;76.78;29.77;;;;;;;;;;5070758;28;20024;-41
2023/04/15 01:23:07;;;;;;;71.60;28.27;;;;;;;;;;5070277;28;20025;-39
2023/04/15 01:25:34;;;;;;;61.38;27.75;;;;;;;;;;5068093;28;20505;-38
2023/04/15 01:28:02;;;;;;;75.82;27.45;;;;;;;;;;5060202;28;20056;-39
2023/04/15 01:30:29;;;;;;;74.40;26.30;;;;;;;;;;5058675;28;20033;-39
2023/04/15 01:32:56;;;;;;;63.40;26.80;;;;;;;;;;5065304;28;20059;-38
2023/04/15 01:35:23;;;;;;;59.80;26.70;;;;;;;;;;5064869;28;20029;-41
2023/04/15 01:37:50;;;;;;;55.47;24.25;;;;;;;;;;5060160;28;20070;-40
2023/04/15 01:40:17;;;;;;;59.83;24.15;;;;;;;;;;5040293;28;20487;-39
2023/04/15 01:42:44;;;;;;;59.55;23.42;;;;;;;;;;5060623;28;20036;-39
2023/04/15 01:45:12;;;;;;;54.20;22.83;;;;;;;;;;5060420;28;20071;-38
2023/04/15 01:47:40;;;;;;;53.38;22.50;;;;;;;;;;5059226;28;20033;-38
2023/04/15 01:50:07;;;;;;;54.72;20.85;;;;;;;;;;5059240;28;20025;-40
2023/04/15 01:52:34;;;;;;;50.65;21.27;;;;;;;;;;5060377;28;20025;-38
2023/04/15 01:55:01;;;;;;;62.22;20.27;;;;;;;;;;5050322;28;20032;-38
2023/04/15 01:57:28;;;;;;;53.65;19.25;;;;;;;;;;5053224;28;20466;-38
2023/04/15 01:59:55;;;;;;;55.88;20.20;;;;;;;;;;5057874;28;20020;-41
2023/04/15 02:02:22;;;;;;;49.58;18.25;;;;;;;;;;5059289;28;20482;-38
2023/04/15 02:04:49;;;;;;;51.22;18.15;;;;;;;;;;5057928;28;20037;-40
2023/04/15 02:07:17;;;;;;;45.78;16.85;;;;;;;;;;5052928;28;20035;-38
2023/04/15 02:09:44;;;;;;;45.15;16.58;;;;;;;;;;5056350;28;20047;-38
2023/04/15 02:12:12;;;;;;;37.60;15.32;;;;;;;;;;5059528;28;20060;-41
2023/04/15 02:14:39;;;;;;;50.72;15.90;;;;;;;;;;5062525;28;20041;-38
2023/04/15 02:17:07;;;;;;;49.17;17.30;;;;;;;;;;5061230;28;20368;-39
2023/04/15 02:19:35;;;;;;;47.25;15.80;;;;;;;;;;5053330;28;20083;-38
2023/04/15 02:22:02;;;;;;;39.53;14.50;;;;;;;;;;5056055;28;20032;-40
2023/04/15 02:24:30;;;;;;;40.97;14.93;;;;;;;;;;5042423;28;20403;-41
2023/04/15 02:26:57;;;;;;;42.53;14.70;;;;;;;;;;5058357;28;20044;-38
2023/04/15 02:29:24;;;;;;;44.25;14.57;;;;;;;;;;5057782;28;20078;-39
2023/04/15 02:31:51;;;;;;;39.75;13.30;;;;;;;;;;5064508;28;20036;-40
2023/04/15 02:34:18;;;;;;;41.72;13.95;;;;;;;;;;5063260;28;20029;-37
2023/04/15 02:36:47;;;;;;;36.40;13.18;;;;;;;;;;5062989;28;20028;-37
2023/04/15 02:39:15;;;;;;;45.28;13.90;;;;;;;;;;5065122;28;20032;-41
2023/04/15 02:41:46;;;;;;;36.58;12.95;;;;;;;;;;5063307;28;20042;-41
2023/04/15 02:44:13;;;;;;;39.40;13.35;;;;;;;;;;5046477;28;20036;-41
2023/04/15 02:46:40;;;;;;;34.75;12.68;;;;;;;;;;5063334;28;20048;-41
2023/04/15 02:49:07;;;;;;;34.47;12.07;;;;;;;;;;5062670;28;20032;-38
2023/04/15 02:51:35;;;;;;;38.35;12.13;;;;;;;;;;5062322;28;20032;-38
2023/04/15 02:54:01;;;;;;;37.03;12.98;;;;;;;;;;5063510;28;20031;-41
2023/04/15 02:56:29;;;;;;;34.15;11.20;;;;;;;;;;5064317;28;20064;-38
2023/04/15 02:58:57;;;;;;;30.25;11.32;;;;;;;;;;5062604;28;20475;-41
2023/04/15 03:01:25;;;;;;;31.27;11.18;;;;;;;;;;5062685;28;20398;-41
2023/04/15 03:03:52;;;;;;;31.98;10.68;;;;;;;;;;5064354;28;20044;-40
2023/04/15 03:06:18;;;;;;;30.15;10.85;;;;;;;;;;5060548;28;20056;-37
2023/04/15 03:08:46;;;;;;;29.65;10.60;;;;;;;;;;5062490;28;20094;-38
2023/04/15 03:11:13;;;;;;;29.02;10.88;;;;;;;;;;5063469;28;20028;-39
2023/04/15 03:13:42;;;;;;;31.45;10.80;;;;;;;;;;5061863;28;20513;-38
2023/04/15 03:16:09;;;;;;;28.05;10.50;;;;;;;;;;5061963;28;20093;-38
2023/04/15 03:18:36;;;;;;;32.08;10.95;;;;;;;;;;5063515;28;20378;-38
2023/04/15 03:21:03;;;;;;;33.67;10.57;;;;;;;;;;5062173;28;20134;-41
2023/04/15 03:23:33;;;;;;;32.75;10.55;;;;;;;;;;5061288;28;20040;-38
2023/04/15 03:26:03;;;;;;;27.17;9.90;;;;;;;;;;5061712;28;20064;-38
2023/04/15 03:28:31;;;;;;;26.15;9.50;;;;;;;;;;5061560;28;20051;-38
2023/04/15 03:30:58;;;;;;;27.27;9.07;;;;;;;;;;5061242;28;20037;-40
2023/04/15 03:33:25;;;;;;;31.42;9.02;;;;;;;;;;5063205;28;20141;-40
2023/04/15 03:35:53;;;;;;;24.88;9.63;;;;;;;;;;5061375;28;20042;-40
2023/04/15 03:38:20;;;;;;;24.65;8.80;;;;;;;;;;5067835;28;20398;-38
2023/04/15 03:40:47;;;;;;;27.17;9.20;;;;;;;;;;5073498;28;20047;-38
2023/04/15 03:43:14;;;;;;;29.90;8.65;;;;;;;;;;5073334;28;20032;-37
2023/04/15 03:45:41;;;;;;;27.65;9.23;;;;;;;;;;5073532;28;20063;-38
2023/04/15 03:48:08;;;;;;;27.25;9.60;;;;;;;;;;5073484;28;20024;-38
2023/04/15 03:50:35;;;;;;;26.42;8.98;;;;;;;;;;5073538;28;20039;-37
2023/04/15 03:53:02;;;;;;;22.63;8.38;;;;;;;;;;5073269;28;20036;-37
2023/04/15 03:55:29;;;;;;;20.38;8.30;;;;;;;;;;5073407;28;20024;-37
2023/04/15 03:57:56;;;;;;;19.80;7.75;;;;;;;;;;5073396;28;20105;-37
2023/04/15 04:00:23;;;;;;;20.83;7.72;;;;;;;;;;5073037;28;20090;-38
2023/04/15 04:02:50;;;;;;;23.58;8.35;;;;;;;;;;5073271;28;20035;-37
2023/04/15 04:05:17;;;;;;;20.77;8.43;;;;;;;;;;5072615;28;20060;-37
2023/04/15 04:07:44;;;;;;;21.40;7.15;;;;;;;;;;5072744;28;20028;-37
2023/04/15 04:10:11;;;;;;;22.25;7.78;;;;;;;;;;5072755;28;20017;-37
2023/04/15 04:12:38;;;;;;;16.63;6.97;;;;;;;;;;5072513;28;20048;-37
2023/04/15 04:15:05;;;;;;;26.65;7.35;;;;;;;;;;5072615;28;20082;-37
2023/04/15 04:17:32;;;;;;;21.92;7.53;;;;;;;;;;5072766;28;20107;-37
2023/04/15 04:20:00;;;;;;;20.58;7.47;;;;;;;;;;5072690;28;20028;-37
2023/04/15 04:22:27;;;;;;;22.73;7.57;;;;;;;;;;5072299;28;20033;-37
2023/04/15 04:24:53;;;;;;;22.08;7.22;;;;;;;;;;5072022;28;20499;-37
2023/04/15 04:27:20;;;;;;;19.27;6.50;;;;;;;;;;5072503;28;20115;-37
2023/04/15 04:29:48;;;;;;;20.45;7.15;;;;;;;;;;5072517;28;20029;-37
2023/04/15 04:32:15;;;;;;;18.35;6.85;;;;;;;;;;5072010;28;20032;-37
2023/04/15 04:34:42;;;;;;;17.92;6.47;;;;;;;;;;5072429;28;20052;-37
2023/04/15 04:37:10;;;;;;;16.73;6.60;;;;;;;;;;5072379;28;20047;-37
2023/04/15 04:39:37;;;;;;;17.60;6.40;;;;;;;;;;5072244;28;20067;-37
2023/04/15 04:42:03;;;;;;;20.63;6.40;;;;;;;;;;5072248;28;20686;-37
2023/04/15 04:44:30;;;;;;;13.82;5.90;;;;;;;;;;5072004;28;20394;-37
2023/04/15 04:46:57;;;;;;;19.33;5.63;;;;;;;;;;5072173;28;20043;-37
2023/04/15 04:49:24;;;;;;;22.73;6.68;;;;;;;;;;5071886;28;20020;-37
2023/04/15 04:51:52;;;;;;;18.38;6.25;;;;;;;;;;5053677;28;20394;-38
2023/04/15 04:54:20;;;;;;;16.05;6.18;;;;;;;;;;5070691;28;20020;-40
2023/04/15 04:56:47;;;;;;;19.48;6.32;;;;;;;;;;5071143;28;20031;-40
2023/04/15 04:59:14;;;;;;;17.35;5.88;;;;;;;;;;5071194;28;20030;-40
2023/04/15 05:01:41;;;;;;;14.23;5.55;;;;;;;;;;5071021;28;20035;-40
2023/04/15 05:04:08;;;;;;;18.77;5.85;;;;;;;;;;5070951;28;20115;-40
2023/04/15 05:06:35;;;;;;;12.93;5.15;;;;;;;;;;5070961;28;20040;-40
2023/04/15 05:09:03;;;;;;;15.05;6.20;;;;;;;;;;5070800;28;20066;-37
2023/04/15 05:11:30;;;;;;;18.38;5.70;;;;;;;;;;5070807;28;20552;-37
2023/04/15 05:13:58;;;;;;;14.13;6.07;;;;;;;;;;5070951;28;20032;-37
2023/04/15 05:16:25;;;;;;;13.88;5.22;;;;;;;;;;5070741;28;20037;-37
2023/04/15 05:18:52;;;;;;;16.55;5.28;;;;;;;;;;5071357;28;20029;-37
2023/04/15 05:21:19;;;;;;;15.77;4.97;;;;;;;;;;5071380;28;20024;-37
2023/04/15 05:23:47;;;;;;;17.08;5.80;;;;;;;;;;5071356;28;20048;-37
2023/04/15 05:26:14;;;;;;;13.48;4.88;;;;;;;;;;5071478;28;20024;-37
2023/04/15 05:28:41;;;;;;;14.45;5.60;;;;;;;;;;5071385;28;20086;-37
2023/04/15 05:31:08;;;;;;;15.50;5.38;;;;;;;;;;5071355;28;20040;-37
2023/04/15 05:33:35;;;;;;;11.63;5.13;;;;;;;;;;5071398;28;20052;-38
2023/04/15 05:36:02;;;;;;;11.95;4.72;;;;;;;;;;5071248;28;20382;-37
2023/04/15 05:38:29;;;;;;;12.55;4.88;;;;;;;;;;5071150;28;20067;-37
2023/04/15 05:40:56;;;;;;;12.40;4.72;;;;;;;;;;5071265;28;20076;-37
2023/04/15 05:43:23;;;;;;;12.25;5.00;;;;;;;;;;5071329;28;20111;-37
2023/04/15 05:45:51;;;;;;;9.48;4.70;;;;;;;;;;5071213;28;20063;-37
2023/04/15 05:48:18;;;;;;;12.85;5.38;;;;;;;;;;5071047;28;20036;-37
2023/04/15 05:50:44;;;;;;;13.30;4.82;;;;;;;;;;5071354;28;20024;-38
2023/04/15 05:53:11;;;;;;;16.02;5.22;;;;;;;;;;5070940;28;20091;-37
2023/04/15 05:55:38;;;;;;;11.80;4.68;;;;;;;;;;5071212;28;20033;-37
2023/04/15 05:58:05;;;;;;;15.10;4.82;;;;;;;;;;5071153;28;20482;-38
2023/04/15 06:00:32;;;;;;;11.25;4.47;;;;;;;;;;5052659;28;20036;-37
2023/04/15 06:02:59;;;;;;;13.65;4.35;;;;;;;;;;5049505;28;20059;-40
2023/04/15 06:05:26;;;;;;;10.77;4.45;;;;;;;;;;5052200;28;20094;-40
2023/04/15 06:07:53;;;;;;;12.68;4.60;;;;;;;;;;5054695;28;20029;-40
2023/04/15 06:10:21;;;;;;;12.15;4.72;;;;;;;;;;5055078;28;20386;-41
2023/04/15 06:12:48;;;;;;;16.23;4.95;;;;;;;;;;5055124;28;20111;-40
2023/04/15 06:15:15;;;;;;;14.95;4.07;;;;;;;;;;5054908;28;20079;-40
2023/04/15 06:17:42;;;;;;;11.18;4.35;;;;;;;;;;5054834;28;20060;-40
2023/04/15 06:20:10;;;;;;;13.70;4.68;;;;;;;;;;5055033;28;20122;-40
2023/04/15 06:22:40;;;;;;;8.52;4.07;;;;;;;;;;5054463;28;20029;-37
2023/04/15 06:25:08;;;;;;;10.48;4.50;;;;;;;;;;5054559;28;20057;-37
2023/04/15 06:27:35;;;;;;;14.98;4.90;;;;;;;;;;5054957;28;20033;-37
2023/04/15 06:30:02;;;;;;;11.43;3.92;;;;;;;;;;5054585;28;20033;-37
2023/04/15 06:32:29;;;;;;;10.55;4.38;;;;;;;;;;5054760;28;20032;-37
2023/04/15 06:34:56;;;;;;;16.92;4.22;;;;;;;;;;5054837;28;20025;-41
2023/04/15 06:37:23;;;;;;;11.00;4.30;;;;;;;;;;5054682;28;20052;-40
2023/04/15 06:39:50;;;;;;;12.52;4.30;;;;;;;;;;5054673;28;20021;-40
2023/04/15 06:42:17;;;;;;;10.48;4.15;;;;;;;;;;5054258;28;20037;-42
2023/04/15 06:44:44;;;;;;;11.77;3.72;;;;;;;;;;5054568;28;20033;-40
2023/04/15 06:47:13;;;;;;;9.07;3.40;;;;;;;;;;5054433;28;20025;-40
2023/04/15 06:49:41;;;;;;;11.48;4.07;;;;;;;;;;5054329;28;20045;-40
2023/04/15 06:52:09;;;;;;;9.98;3.92;;;;;;;;;;5053963;28;20083;-37
2023/04/15 06:54:36;;;;;;;14.95;3.97;;;;;;;;;;5054382;28;20061;-37
2023/04/15 06:57:03;;;;;;;10.50;3.42;;;;;;;;;;5054323;28;20032;-37
2023/04/15 06:59:30;;;;;;;10.30;3.60;;;;;;;;;;5054314;28;20033;-37
2023/04/15 07:01:57;;;;;;;15.10;3.60;;;;;;;;;;5054126;28;20021;-37
2023/04/15 07:04:24;;;;;;;7.95;3.53;;;;;;;;;;5053832;28;20635;-37
2023/04/15 07:06:51;;;;;;;10.65;3.50;;;;;;;;;;5054108;28;20025;-37
2023/04/15 07:09:18;;;;;;;8.40;3.60;;;;;;;;;;5054227;28;20021;-41
2023/04/15 07:11:45;;;;;;;8.90;3.10;;;;;;;;;;5054024;28;20084;-40
2023/04/15 07:14:12;;;;;;;8.23;3.75;;;;;;;;;;5053980;28;20036;-40
2023/04/15 07:16:39;;;;;;;10.52;3.58;;;;;;;;;;5053343;28;20139;-41
2023/04/15 07:19:06;;;;;;;10.98;3.50;;;;;;;;;;5053957;28;20032;-40
2023/04/15 07:21:33;;;;;;;13.48;3.67;;;;;;;;;;5053693;28;20025;-40
2023/04/15 07:24:00;;;;;;;9.57;3.13;;;;;;;;;;5053679;28;20142;-40
2023/04/15 07:26:27;;;;;;;9.23;3.53;;;;;;;;;;5053565;28;20037;-40
2023/04/15 07:28:54;;;;;;;8.48;3.40;;;;;;;;;;5053846;28;20025;-40
2023/04/15 07:31:21;;;;;;;7.57;3.30;;;;;;;;;;5053337;28;20029;-40
2023/04/15 07:33:48;;;;;;;8.43;3.35;;;;;;;;;;5053693;28;20471;-41
2023/04/15 07:36:15;;;;;;;7.18;3.58;;;;;;;;;;5053598;28;20488;-40
2023/04/15 07:38:42;;;;;;;8.43;3.25;;;;;;;;;;5053498;28;20036;-41
2023/04/15 07:41:09;;;;;;;7.82;2.70;;;;;;;;;;5053303;28;20414;-41
2023/04/15 07:43:36;;;;;;;10.90;3.42;;;;;;;;;;5053347;28;20120;-40
2023/04/15 07:46:03;;;;;;;9.90;3.63;;;;;;;;;;5053407;28;20021;-40
2023/04/15 07:48:30;;;;;;;8.77;2.92;;;;;;;;;;5053418;28;20033;-41
2023/04/15 07:50:57;;;;;;;9.60;2.97;;;;;;;;;;5053200;28;20098;-41
2023/04/15 07:53:25;;;;;;;7.15;3.08;;;;;;;;;;5053413;28;20033;-40
2023/04/15 07:55:51;;;;;;;8.65;3.17;;;;;;;;;;5052932;28;20395;-40
2023/04/15 07:58:19;;;;;;;9.95;3.58;;;;;;;;;;5053255;28;20025;-40
2023/04/15 08:00:46;;;;;;;9.40;3.20;;;;;;;;;;5052872;28;20487;-40
2023/04/15 08:03:13;;;;;;;12.35;3.25;;;;;;;;;;5052984;28;20040;-40
2023/04/15 08:05:40;;;;;;;7.57;2.72;;;;;;;;;;5052755;28;20100;-40
2023/04/15 08:08:07;;;;;;;7.97;3.00;;;;;;;;;;5053082;28;20025;-40
2023/04/15 08:10:35;;;;;;;7.20;2.75;;;;;;;;;;5052752;28;20041;-41
2023/04/15 08:13:01;;;;;;;9.02;2.53;;;;;;;;;;5052800;28;20044;-40
2023/04/15 08:15:29;;;;;;;9.88;3.10;;;;;;;;;;5052892;28;20024;-40
2023/04/15 08:17:56;;;;;;;6.85;2.65;;;;;;;;;;5052939;28;20021;-40
2023/04/15 08:20:23;;;;;;;6.63;2.95;;;;;;;;;;5052712;28;20671;-40
2023/04/15 08:22:51;;;;;;;6.70;2.72;;;;;;;;;;5052398;28;20029;-41
2023/04/15 08:25:21;;;;;;;9.07;2.40;;;;;;;;;;5052375;28;20411;-41
2023/04/15 08:27:48;;;;;;;5.65;2.88;;;;;;;;;;5051751;28;20441;-40
2023/04/15 08:30:15;;;;;;;7.20;2.42;;;;;;;;;;5052571;28;20045;-40
2023/04/15 08:32:48;;;;;;;7.30;2.72;;;;;;;;;;5052429;28;20028;-40
2023/04/15 08:35:15;;;;;;;7.97;2.83;;;;;;;;;;5052463;28;20045;-40
2023/04/15 08:37:42;;;;;;;7.28;2.63;;;;;;;;;;5052472;28;20025;-40
2023/04/15 08:40:09;;;;;;;8.95;2.72;;;;;;;;;;5052310;28;20048;-40
2023/04/15 08:42:49;;;;;;;5.95;2.22;;;;;;;;;;5052332;28;20038;-40
2023/04/15 08:45:17;;;;;;;3.92;2.17;;;;;;;;;;5052089;28;20041;-41
2023/04/15 08:47:45;;;;;;;5.95;2.28;;;;;;;;;;5052241;28;20037;-40
2023/04/15 08:50:13;;;;;;;8.43;2.78;;;;;;;;;;5052241;28;20123;-40
2023/04/15 08:52:40;;;;;;;5.35;2.53;;;;;;;;;;5052201;28;20021;-40
2023/04/15 08:55:08;;;;;;;5.47;2.40;;;;;;;;;;5052140;28;20029;-40
2023/04/15 08:57:35;;;;;;;6.88;2.20;;;;;;;;;;5052074;28;20095;-40
2023/04/15 09:00:03;;;;;;;6.07;2.55;;;;;;;;;;5052312;28;20360;-37
2023/04/15 09:02:30;;;;;;;7.30;2.45;;;;;;;;;;5051972;28;20036;-37
2023/04/15 09:04:57;;;;;;;5.10;2.55;;;;;;;;;;5051495;28;20045;-38
2023/04/15 09:07:24;;;;;;;7.40;2.42;;;;;;;;;;5039890;28;20029;-38
2023/04/15 09:09:52;;;;;;;6.25;2.55;;;;;;;;;;5031827;28;20368;-37
2023/04/15 09:12:19;;;;;;;5.90;2.38;;;;;;;;;;5031767;28;20025;-37
2023/04/15 09:14:47;;;;;;;5.50;2.45;;;;;;;;;;5031919;28;20502;-37
2023/04/15 09:17:19;;;;;;;4.18;2.05;;;;;;;;;;5031876;28;20029;-38
2023/04/15 09:19:45;;;;;;;;;;;;;;;;;;5032214;28;20021;-37
2023/04/15 09:22:13;;;;;;;8.30;2.40;;;;;;;;;;5031610;28;20608;-38
2023/04/15 09:24:42;;;;;;;6.70;2.13;;;;;;;;;;5031318;28;20057;-37
2023/04/15 09:27:11;;;;;;;6.03;2.17;;;;;;;;;;5031586;28;20499;-37
2023/04/15 09:29:38;;;;;;;8.40;2.40;;;;;;;;;;5031635;28;20037;-38
2023/04/15 09:32:12;;;;;;;5.07;2.20;;;;;;;;;;5043652;28;20060;-37
2023/04/15 09:34:39;;;;;;;5.03;2.30;;;;;;;;;;5031577;28;20033;-40
2023/04/15 09:37:06;;;;;;;6.82;2.20;;;;;;;;;;5031342;28;20108;-40
2023/04/15 09:39:47;;;;;;;6.75;2.35;;;;;;;;;;5031468;28;20033;-40
2023/04/15 09:42:14;;;;;;;7.70;2.33;;;;;;;;;;5031445;28;20466;-38
2023/04/15 09:44:41;;;;;;;8.23;2.40;;;;;;;;;;5031271;28;20050;-37
2023/04/15 09:47:08;;;;;;;5.93;2.28;;;;;;;;;;5031331;28;20056;-37
2023/04/15 09:49:35;;;;;;;4.97;2.13;;;;;;;;;;5031472;28;20025;-38
2023/04/15 09:52:02;;;;;;;4.50;1.98;;;;;;;;;;5031150;28;20045;-37
2023/04/15 09:54:33;;;;;;;6.05;2.17;;;;;;;;;;5031322;28;20504;-37
2023/04/15 09:57:05;;;;;;;4.65;2.00;;;;;;;;;;5031070;28;20037;-37
2023/04/15 09:59:32;;;;;;;4.97;2.10;;;;;;;;;;5031106;28;20536;-37
2023/04/15 10:01:59;;;;;;;7.68;2.53;;;;;;;;;;5031063;28;20387;-37
2023/04/15 10:04:27;;;;;;;4.68;2.30;;;;;;;;;;5030765;28;20041;-40
2023/04/15 10:06:54;;;;;;;6.13;1.73;;;;;;;;;;5031014;28;20104;-40
2023/04/15 10:09:21;;;;;;;6.93;2.05;;;;;;;;;;5031115;28;20034;-40
2023/04/15 10:11:49;;;;;;;9.55;2.30;;;;;;;;;;5044608;28;20033;-37
2023/04/15 10:14:17;;;;;;;7.43;2.05;;;;;;;;;;5050906;28;20122;-40
2023/04/15 10:16:47;;;;;;;14.27;3.13;;;;;;;;;;5051021;28;20827;-40
2023/04/15 10:19:15;;;;;;;8.63;1.92;;;;;;;;;;5050518;28;20123;-40
2023/04/15 10:21:43;;;;;;;10.90;2.20;;;;;;;;;;5050809;28;20021;-37
2023/04/15 10:24:11;;;;;;;7.05;2.15;;;;;;;;;;5050357;28;20085;-37
2023/04/15 10:26:38;;;;;;;9.88;2.35;;;;;;;;;;5050803;28;20033;-37
2023/04/15 10:29:05;;;;;;;6.63;2.25;;;;;;;;;;5032772;28;20378;-37
2023/04/15 10:31:32;;;;;;;6.35;1.98;;;;;;;;;;5050838;28;20017;-37
2023/04/15 10:34:05;;;;;;;7.72;2.25;;;;;;;;;;5050506;28;20017;-37
2023/04/15 10:36:31;;;;;;;;;;;;;;;;;;5048434;28;20036;-40
2023/04/15 10:38:58;;;;;;;6.32;2.10;;;;;;;;;;5049886;28;20357;-40
2023/04/15 10:41:28;;;;;;;6.15;1.75;;;;;;;;;;5050083;28;20497;-37
2023/04/15 10:43:56;;;;;;;5.45;1.75;;;;;;;;;;5046856;28;20080;-37
2023/04/15 10:46:42;;;;;;;8.05;1.95;;;;;;;;;;5049797;28;20479;-38
2023/04/15 10:49:13;;;;;;;10.02;2.35;;;;;;;;;;5048062;28;20475;-38
2023/04/15 10:51:41;;;;;;;10.35;2.58;;;;;;;;;;5052390;28;20070;-41
2023/04/15 10:54:38;;;;;;;12.55;2.90;;;;;;;;;;5053674;28;20491;-40
2023/04/15 10:57:05;;;;;;;7.90;2.05;;;;;;;;;;5031726;28;20446;-37
2023/04/15 10:59:58;;;;;;;10.07;2.45;;;;;;;;;;5053922;28;20083;-38
2023/04/15 11:02:40;;;;;;;9.30;2.25;;;;;;;;;;5052581;28;20041;-37
2023/04/15 11:05:07;;;;;;;11.45;2.90;;;;;;;;;;5053746;28;20044;-38
2023/04/15 11:07:38;;;;;;;7.90;1.90;;;;;;;;;;5054099;28;20025;-38
2023/04/15 11:10:14;;;;;;;7.63;2.10;;;;;;;;;;5053981;28;20706;-38
2023/04/15 11:12:41;;;;;;;12.02;2.22;;;;;;;;;;5053724;28;20024;-38
2023/04/15 11:15:28;;;;;;;9.13;1.92;;;;;;;;;;5053889;28;20040;-38
2023/04/15 11:17:56;;;;;;;7.13;2.00;;;;;;;;;;5053852;28;20540;-38
2023/04/15 11:20:24;;;;;;;5.22;1.80;;;;;;;;;;5053886;28;20112;-38
2023/04/15 11:22:53;;;;;;;10.88;2.28;;;;;;;;;;5053842;28;20218;-38
2023/04/15 11:25:31;;;;;;;8.48;2.13;;;;;;;;;;5053306;28;20056;-40
2023/04/15 11:27:58;;;;;;;8.52;2.42;;;;;;;;;;5053552;28;20094;-40
2023/04/15 11:30:27;;;;;;;10.43;2.17;;;;;;;;;;5053471;28;20162;-40
2023/04/15 11:33:02;;;;;;;8.65;2.10;;;;;;;;;;5053494;28;20029;-40
2023/04/15 11:35:29;;;;;;;8.40;2.10;;;;;;;;;;5034935;28;20048;-40
2023/04/15 11:37:57;;;;;;;10.52;2.38;;;;;;;;;;5053203;28;20029;-41
2023/04/15 11:40:26;;;;;;;14.75;2.58;;;;;;;;;;5052382;28;20108;-38
2023/04/15 11:43:11;;;;;;;10.40;2.13;;;;;;;;;;5052963;28;20041;-38
2023/04/15 11:45:39;;;;;;;10.60;2.30;;;;;;;;;;5053047;28;20116;-40
2023/04/15 11:48:10;;;;;;;10.20;2.13;;;;;;;;;;5053124;28;20033;-40
2023/04/15 11:50:41;;;;;;;10.02;2.38;;;;;;;;;;5053276;28;20057;-41
2023/04/15 11:53:09;;;;;;;8.50;2.20;;;;;;;;;;5052981;28;20087;-37
2023/04/15 11:55:43;;;;;;;10.13;2.67;;;;;;;;;;5053045;28;20036;-38
2023/04/15 11:58:11;;;;;;;9.20;2.22;;;;;;;;;;5051712;28;20029;-40
2023/04/15 12:00:38;;;;;;;11.48;2.53;;;;;;;;;;5051655;28;20106;-38
2023/04/15 12:03:12;;;;;;;12.57;2.20;;;;;;;;;;5050704;28;20120;-38
2023/04/15 12:05:57;;;;;;;14.13;2.78;;;;;;;;;;5051898;28;20029;-38
2023/04/15 12:08:24;;;;;;;8.88;2.22;;;;;;;;;;5052127;28;20487;-38
2023/04/15 12:10:51;;;;;;;11.75;2.50;;;;;;;;;;5051970;28;20033;-38
2023/04/15 12:13:19;;;;;;;9.35;2.58;;;;;;;;;;5051402;28;20063;-38
2023/04/15 12:15:46;;;;;;;6.43;2.05;;;;;;;;;;5051516;28;20045;-38
2023/04/15 12:18:25;;;;;;;12.52;2.20;;;;;;;;;;5051696;28;20067;-38
2023/04/15 12:20:53;;;;;;;13.35;2.58;;;;;;;;;;5051068;28;20437;-38
2023/04/15 12:23:20;;;;;;;7.47;2.00;;;;;;;;;;5050078;28;20037;-40
2023/04/15 12:25:51;;;;;;;11.27;2.17;;;;;;;;;;5051006;28;20091;-39
2023/04/15 12:28:19;;;;;;;10.80;2.42;;;;;;;;;;5051321;28;20025;-40
2023/04/15 12:30:50;;;;;;;9.15;2.40;;;;;;;;;;5050244;28;20368;-41
2023/04/15 12:33:17;;;;;;;12.13;2.38;;;;;;;;;;5047922;28;20029;-40
2023/04/15 12:35:44;;;;;;;15.00;1.95;;;;;;;;;;5051783;28;20024;-41
2023/04/15 12:38:11;;;;;;;13.00;2.20;;;;;;;;;;5050207;28;20041;-38
2023/04/15 12:40:38;;;;;;;11.77;2.47;;;;;;;;;;5051057;28;20051;-41
2023/04/15 12:43:05;;;;;;;11.57;2.13;;;;;;;;;;5050866;28;20031;-39
2023/04/15 12:45:32;;;;;;;13.45;2.28;;;;;;;;;;5050794;28;20040;-38
2023/04/15 12:48:00;;;;;;;20.25;2.88;;;;;;;;;;5050822;28;20024;-38
2023/04/15 12:50:26;;;;;;;13.80;2.55;;;;;;;;;;5050908;28;20033;-38
2023/04/15 12:52:53;;;;;;;10.98;2.53;;;;;;;;;;5051195;28;20047;-41
2023/04/15 12:55:21;;;;;;;11.07;2.67;;;;;;;;;;5051046;28;20032;-41
2023/04/15 12:57:48;;;;;;;12.00;2.47;;;;;;;;;;5051051;28;20033;-41
2023/04/15 13:00:15;;;;;;;11.80;2.42;;;;;;;;;;5048075;28;20044;-39
2023/04/15 13:02:43;;;;;;;14.52;3.13;;;;;;;;;;5050900;28;20031;-38
2023/04/15 13:05:13;;;;;;;19.70;3.20;;;;;;;;;;5050456;28;20106;-38
2023/04/15 13:07:40;;;;;;;17.50;3.10;;;;;;;;;;5050933;28;20052;-38
2023/04/15 13:10:08;;;;;;;11.70;2.38;;;;;;;;;;5032835;28;20029;-39
2023/04/15 13:12:38;;;;;;;11.10;2.80;;;;;;;;;;5050833;28;20053;-38
2023/04/15 13:15:05;;;;;;;16.80;2.97;;;;;;;;;;5050427;28;20033;-38
2023/04/15 13:17:32;;;;;;;15.10;2.65;;;;;;;;;;5050680;28;20051;-38
2023/04/15 13:19:59;;;;;;;14.00;2.83;;;;;;;;;;5033111;28;20059;-38
2023/04/15 13:22:26;;;;;;;13.98;3.05;;;;;;;;;;5033387;28;20033;-38
2023/04/15 13:24:53;;;;;;;40.63;3.97;;;;;;;;;;5051123;28;20119;-37
2023/04/15 13:27:20;;;;;;;21.50;3.00;;;;;;;;;;5051092;28;20032;-40
2023/04/15 13:29:47;;;;;;;12.50;2.75;;;;;;;;;;5051125;28;20083;-39
2023/04/15 13:32:14;;;;;;;12.18;2.60;;;;;;;;;;5050297;28;20037;-40
2023/04/15 13:34:41;;;;;;;22.48;2.90;;;;;;;;;;5050646;28;20059;-40
2023/04/15 13:37:08;;;;;;;13.00;2.53;;;;;;;;;;5049794;28;20025;-40
2023/04/15 13:39:35;;;;;;;15.75;2.65;;;;;;;;;;5050230;28;20033;-37
2023/04/15 13:42:02;;;;;;;13.70;2.60;;;;;;;;;;5050334;28;20037;-40
2023/04/15 13:44:30;;;;;;;11.10;3.10;;;;;;;;;;5050032;28;20147;-41
2023/04/15 13:46:57;;;;;;;17.40;2.97;;;;;;;;;;5050731;28;20747;-40
2023/04/15 13:49:24;;;;;;;14.10;2.30;;;;;;;;;;5048998;28;20025;-38
2023/04/15 13:51:51;;;;;;;14.45;2.65;;;;;;;;;;5067779;22;20052;-39
2023/04/15 13:54:18;;;;;;;13.43;2.80;;;;;;;;;;5056602;28;20238;-39
2023/04/15 13:56:45;;;;;;;13.98;2.78;;;;;;;;;;5060757;28;20103;-39
2023/04/15 13:59:13;;;;;;;13.32;2.72;;;;;;;;;;5060380;28;20485;-39
2023/04/15 14:01:40;;;;;;;11.90;2.40;;;;;;;;;;5058473;28;20063;-39
2023/04/15 14:04:07;;;;;;;13.40;2.40;;;;;;;;;;5059520;28;20215;-39
2023/04/15 14:06:34;;;;;;;15.90;2.47;;;;;;;;;;5041553;28;20020;-40
2023/04/15 14:09:01;;;;;;;16.77;2.67;;;;;;;;;;5060955;28;20024;-39
2023/04/15 14:11:28;;;;;;;13.88;2.50;;;;;;;;;;5068989;28;20593;-37
2023/04/15 14:13:55;;;;;;;17.38;3.30;;;;;;;;;;5060841;28;20017;-37
2023/04/15 14:16:22;;;;;;;11.68;2.60;;;;;;;;;;5058752;28;20037;-38
2023/04/15 14:18:49;;;;;;;15.85;3.10;;;;;;;;;;5060402;28;20024;-38
2023/04/15 14:21:16;;;;;;;15.93;3.05;;;;;;;;;;5058732;28;20020;-37
2023/04/15 14:23:43;;;;;;;14.32;3.13;;;;;;;;;;5060000;28;20032;-37
2023/04/15 14:26:10;;;;;;;14.32;2.80;;;;;;;;;;5059924;28;20478;-38
2023/04/15 14:28:37;;;;;;;17.30;2.60;;;;;;;;;;5062632;28;20017;-38
2023/04/15 14:31:05;;;;;;;14.88;2.83;;;;;;;;;;5063635;28;20535;-38
2023/04/15 14:33:32;;;;;;;13.82;2.88;;;;;;;;;;5062466;28;20486;-38
2023/04/15 14:35:59;;;;;;;22.67;3.30;;;;;;;;;;5055043;28;20111;-38